NCAR-RAP Real-Time Weather Data

Output produced by METARs form (12 May 2021  11:34 UTC)
found at http://weather.rap.ucar.edu/surface/
 
KBGM 121053Z 32011G17KT 10SM OVC012 03/01 A3015 RMK AO2 SLP221 T00330011
KBGM 120953Z 32007KT 10SM OVC012 03/01 A3013 RMK AO2 SLP212 T00280006
KBGM 120916Z AUTO 31008KT 10SM OVC014 03/00 A3012 RMK AO2 T00280000
KBGM 120853Z AUTO 31009KT 10SM OVC015 03/M01 A3012 RMK AO2 SLP208 T00281006 53003
KBGM 120801Z AUTO 31006KT 10SM BKN022 BKN027 OVC034 03/M02 A3011 RMK AO2 T00281017
KBGM 120753Z AUTO 30008KT 10SM SCT024 OVC033 02/M02 A3011 RMK AO2 SLP205 T00221017
KBGM 120653Z AUTO 29005KT 10SM FEW045 02/M02 A3010 RMK AO2 SLP203 T00171017
KBGM 120553Z AUTO 28008KT 10SM CLR 02/M02 A3011 RMK AO2 SLP206 T00221017 10072 20022 58000
KBGM 120453Z AUTO 28008KT 10SM SCT036 03/M02 A3012 RMK AO2 SLP211 T00281017 401060028
KBGM 120353Z AUTO 29008KT 10SM CLR 03/M02 A3012 RMK AO2 SLP208 T00331017
KBGM 120253Z 29008G15KT 10SM FEW049 04/M02 A3011 RMK AO2 SLP204 T00391017 50018
KBGM 120153Z 29010G18KT 10SM CLR 05/M02 A3011 RMK AO2 SLP204 T00501022
KBGM 120053Z 30011G18KT 10SM CLR 06/M03 A3008 RMK AO2 SLP197 T00611033
KBGM 112353Z 31010G18KT 10SM CLR 07/M04 A3005 RMK AO2 SLP186 T00721044 10106 20072 53012
KBGM 112253Z 31013G20KT 10SM SCT090 08/M05 A3004 RMK AO2 SLP181 T00831050
KBGM 112153Z 32013G19KT 10SM FEW075 SCT090 09/M04 A3002 RMK AO2 SLP176 T00941039
KBGM 112053Z 33013G20KT 10SM SCT065 BKN090 09/M04 A3002 RMK AO2 SLP172 T00941039 56007
KBGM 111953Z 30008G17KT 10SM FEW050 SCT070 OVC090 09/M03 A3002 RMK AO2 WSHFT 1845 SLP174 T00891028
KBGM 111905Z 32012G20KT 10SM BKN055 BKN070 BKN100 10/M01 A3002 RMK AO2 WSHFT 1845 T01001011
KBGM 111853Z 32012G22KT 10SM FEW041 BKN050 OVC100 10/M02 A3002 RMK AO2 SLP174 T01001017